sensor_id;sensor_type;location;lat;lon;timestamp;pressure;altitude;pressure_sealevel;temperature;humidity
49030;BME280;43337;52.070;4.508;2023-04-27T00:01:54;102296.28;;;4.86;100.00
49030;BME280;43337;52.070;4.508;2023-04-27T00:04:19;102289.31;;;4.82;100.00
49030;BME280;43337;52.070;4.508;2023-04-27T00:06:45;102285.78;;;4.80;100.00
49030;BME280;43337;52.070;4.508;2023-04-27T00:09:10;102290.13;;;4.76;100.00
49030;BME280;43337;52.070;4.508;2023-04-27T00:11:36;102283.16;;;4.69;100.00
49030;BME280;43337;52.070;4.508;2023-04-27T00:14:02;102270.94;;;4.65;100.00
49030;BME280;43337;52.070;4.508;2023-04-27T00:16:27;102284.03;;;4.70;100.00
49030;BME280;43337;52.070;4.508;2023-04-27T00:18:53;102271.84;;;4.65;100.00
49030;BME280;43337;52.070;4.508;2023-04-27T00:21:18;102275.25;;;4.60;100.00
49030;BME280;43337;52.070;4.508;2023-04-27T00:23:43;102284.00;;;4.62;100.00
49030;BME280;43337;52.070;4.508;2023-04-27T00:26:09;102286.56;;;4.57;100.00
49030;BME280;43337;52.070;4.508;2023-04-27T00:28:34;102267.41;;;4.51;100.00
49030;BME280;43337;52.070;4.508;2023-04-27T00:31:00;102277.84;;;4.54;100.00
49030;BME280;43337;52.070;4.508;2023-04-27T00:33:27;102278.69;;;4.51;100.00
49030;BME280;43337;52.070;4.508;2023-04-27T00:35:53;102261.22;;;4.38;100.00
49030;BME280;43337;52.070;4.508;2023-04-27T00:38:18;102280.41;;;4.43;100.00
49030;BME280;43337;52.070;4.508;2023-04-27T00:40:44;102243.81;;;4.28;100.00
49030;BME280;43337;52.070;4.508;2023-04-27T00:43:09;102260.34;;;4.31;100.00
49030;BME280;43337;52.070;4.508;2023-04-27T00:45:40;102265.56;;;4.34;100.00
49030;BME280;43337;52.070;4.508;2023-04-27T00:48:07;102255.97;;;4.30;100.00
49030;BME280;43337;52.070;4.508;2023-04-27T00:50:32;102240.25;;;4.16;100.00
49030;BME280;43337;52.070;4.508;2023-04-27T00:52:58;102235.84;;;4.11;100.00
49030;BME280;43337;52.070;4.508;2023-04-27T00:55:23;102254.16;;;4.17;100.00
49030;BME280;43337;52.070;4.508;2023-04-27T00:57:48;102258.47;;;4.15;100.00
49030;BME280;43337;52.070;4.508;2023-04-27T01:00:14;102268.03;;;4.13;100.00
49030;BME280;43337;52.070;4.508;2023-04-27T01:02:40;102262.81;;;4.11;100.00
49030;BME280;43337;52.070;4.508;2023-04-27T01:05:06;102264.53;;;4.08;100.00
49030;BME280;43337;52.070;4.508;2023-04-27T01:07:36;102253.13;;;4.00;100.00
49030;BME280;43337;52.070;4.508;2023-04-27T01:10:02;102273.19;;;4.07;100.00
49030;BME280;43337;52.070;4.508;2023-04-27T01:12:27;102250.53;;;3.97;100.00
49030;BME280;43337;52.070;4.508;2023-04-27T01:14:52;102258.31;;;3.95;100.00
49030;BME280;43337;52.070;4.508;2023-04-27T01:17:18;102256.59;;;3.92;100.00
49030;BME280;43337;52.070;4.508;2023-04-27T01:19:43;102253.94;;;3.91;100.00
49030;BME280;43337;52.070;4.508;2023-04-27T01:22:09;102231.25;;;3.73;100.00
49030;BME280;43337;52.070;4.508;2023-04-27T01:24:34;102244.38;;;3.85;100.00
49030;BME280;43337;52.070;4.508;2023-04-27T01:27:00;102244.38;;;3.85;100.00
49030;BME280;43337;52.070;4.508;2023-04-27T01:29:26;102234.78;;;3.81;100.00
49030;BME280;43337;52.070;4.508;2023-04-27T01:31:52;102239.97;;;3.80;100.00
49030;BME280;43337;52.070;4.508;2023-04-27T01:34:17;102246.00;;;3.76;100.00
49030;BME280;43337;52.070;4.508;2023-04-27T01:36:43;102236.47;;;3.73;100.00
49030;BME280;43337;52.070;4.508;2023-04-27T01:39:08;102251.25;;;3.77;100.00
49030;BME280;43337;52.070;4.508;2023-04-27T01:41:37;102232.09;;;3.69;100.00
49030;BME280;43337;52.070;4.508;2023-04-27T01:44:02;102235.53;;;3.68;100.00
49030;BME280;43337;52.070;4.508;2023-04-27T01:46:27;102217.25;;;3.60;100.00
49030;BME280;43337;52.070;4.508;2023-04-27T01:48:53;102223.34;;;3.62;100.00
49030;BME280;43337;52.070;4.508;2023-04-27T01:51:18;102235.47;;;3.60;100.00
49030;BME280;43337;52.070;4.508;2023-04-27T01:57:06;102237.16;;;3.55;100.00
49030;BME280;43337;52.070;4.508;2023-04-27T01:59:31;102247.59;;;3.55;100.00
49030;BME280;43337;52.070;4.508;2023-04-27T02:01:57;102238.88;;;3.50;100.00
49030;BME280;43337;52.070;4.508;2023-04-27T02:04:22;102229.25;;;3.45;100.00
49030;BME280;43337;52.070;4.508;2023-04-27T02:06:48;102228.41;;;3.47;100.00
49030;BME280;43337;52.070;4.508;2023-04-27T02:09:13;102221.41;;;3.40;100.00
49030;BME280;43337;52.070;4.508;2023-04-27T02:11:38;102226.59;;;3.40;100.00
49030;BME280;43337;52.070;4.508;2023-04-27T02:14:04;102226.59;;;3.41;100.00
49030;BME280;43337;52.070;4.508;2023-04-27T02:16:29;102221.41;;;3.38;100.00
49030;BME280;43337;52.070;4.508;2023-04-27T02:18:55;102205.72;;;3.34;100.00
49030;BME280;43337;52.070;4.508;2023-04-27T02:21:20;102215.28;;;3.36;100.00
49030;BME280;43337;52.070;4.508;2023-04-27T02:23:46;102190.03;;;3.25;100.00
49030;BME280;43337;52.070;4.508;2023-04-27T02:26:18;102225.72;;;3.36;100.00
49030;BME280;43337;52.070;4.508;2023-04-27T02:28:45;102226.56;;;3.35;100.00
49030;BME280;43337;52.070;4.508;2023-04-27T02:31:12;102210.00;;;3.29;100.00
49030;BME280;43337;52.070;4.508;2023-04-27T02:33:38;102189.03;;;3.15;100.00
49030;BME280;43337;52.070;4.508;2023-04-27T02:36:03;102211.75;;;3.27;100.00
49030;BME280;43337;52.070;4.508;2023-04-27T02:38:29;102210.84;;;3.26;100.00
49030;BME280;43337;52.070;4.508;2023-04-27T02:40:54;102213.53;;;3.31;100.00
49030;BME280;43337;52.070;4.508;2023-04-27T02:43:20;102198.69;;;3.25;100.00
49030;BME280;43337;52.070;4.508;2023-04-27T02:45:46;102203.03;;;3.23;100.00
49030;BME280;43337;52.070;4.508;2023-04-27T02:48:11;102211.75;;;3.27;100.00
49030;BME280;43337;52.070;4.508;2023-04-27T02:50:43;102222.16;;;3.30;100.00
49030;BME280;43337;52.070;4.508;2023-04-27T02:53:09;102229.09;;;3.28;100.00
49030;BME280;43337;52.070;4.508;2023-04-27T02:55:35;102227.38;;;3.28;100.00
49030;BME280;43337;52.070;4.508;2023-04-27T02:58:00;102222.13;;;3.24;100.00
49030;BME280;43337;52.070;4.508;2023-04-27T03:00:26;102227.31;;;3.24;100.00
49030;BME280;43337;52.070;4.508;2023-04-27T03:02:51;102224.69;;;3.21;100.00
49030;BME280;43337;52.070;4.508;2023-04-27T03:05:17;102222.88;;;3.13;100.00
49030;BME280;43337;52.070;4.508;2023-04-27T03:07:42;102235.09;;;3.21;100.00
49030;BME280;43337;52.070;4.508;2023-04-27T03:10:08;102227.28;;;3.21;100.00
49030;BME280;43337;52.070;4.508;2023-04-27T03:12:33;102222.00;;;3.14;100.00
49030;BME280;43337;52.070;4.508;2023-04-27T03:14:59;102215.03;;;3.10;100.00
49030;BME280;43337;52.070;4.508;2023-04-27T03:17:25;102222.00;;;3.13;100.00
49030;BME280;43337;52.070;4.508;2023-04-27T03:19:50;102226.31;;;3.11;100.00
49030;BME280;43337;52.070;4.508;2023-04-27T03:22:16;102197.47;;;2.89;100.00
49030;BME280;43337;52.070;4.508;2023-04-27T03:24:41;102229.72;;;3.05;100.00
49030;BME280;43337;52.070;4.508;2023-04-27T03:27:07;102207.00;;;2.90;100.00
49030;BME280;43337;52.070;4.508;2023-04-27T03:29:32;102228.81;;;3.00;100.00
49030;BME280;43337;52.070;4.508;2023-04-27T03:31:57;102227.03;;;2.99;100.00
49030;BME280;43337;52.070;4.508;2023-04-27T03:34:23;102220.03;;;2.90;100.00
49030;BME280;43337;52.070;4.508;2023-04-27T03:36:48;102214.78;;;2.86;100.00
49030;BME280;43337;52.070;4.508;2023-04-27T03:39:13;102230.44;;;2.90;100.00
49030;BME280;43337;52.070;4.508;2023-04-27T03:41:39;102229.50;;;2.85;100.00
49030;BME280;43337;52.070;4.508;2023-04-27T03:44:04;102205.06;;;2.73;100.00
49030;BME280;43337;52.070;4.508;2023-04-27T03:46:31;102199.78;;;2.65;100.00
49030;BME280;43337;52.070;4.508;2023-04-27T03:48:56;102240.72;;;2.81;100.00
49030;BME280;43337;52.070;4.508;2023-04-27T03:51:21;102231.94;;;2.72;100.00
49030;BME280;43337;52.070;4.508;2023-04-27T03:53:47;102214.44;;;2.58;100.00
49030;BME280;43337;52.070;4.508;2023-04-27T03:56:12;102235.38;;;2.71;100.00
49030;BME280;43337;52.070;4.508;2023-04-27T03:58:37;102241.41;;;2.68;100.00
49030;BME280;43337;52.070;4.508;2023-04-27T04:01:03;102244.00;;;2.66;100.00
49030;BME280;43337;52.070;4.508;2023-04-27T04:03:28;102245.69;;;2.64;100.00
49030;BME280;43337;52.070;4.508;2023-04-27T04:05:53;102236.94;;;2.56;100.00
49030;BME280;43337;52.070;4.508;2023-04-27T04:08:19;102253.41;;;2.55;100.00
49030;BME280;43337;52.070;4.508;2023-04-27T04:10:44;102257.72;;;2.56;100.00
49030;BME280;43337;52.070;4.508;2023-04-27T04:13:09;102251.56;;;2.48;100.00
49030;BME280;43337;52.070;4.508;2023-04-27T04:15:35;102246.31;;;2.43;100.00
49030;BME280;43337;52.070;4.508;2023-04-27T04:18:00;102256.66;;;2.42;100.00
49030;BME280;43337;52.070;4.508;2023-04-27T04:20:25;102261.00;;;2.41;100.00
49030;BME280;43337;52.070;4.508;2023-04-27T04:22:51;102246.09;;;2.30;100.00
49030;BME280;43337;52.070;4.508;2023-04-27T04:25:16;102266.22;;;2.43;100.00
49030;BME280;43337;52.070;4.508;2023-04-27T04:27:42;102258.28;;;2.34;100.00
49030;BME280;43337;52.070;4.508;2023-04-27T04:30:07;102253.91;;;2.30;100.00
49030;BME280;43337;52.070;4.508;2023-04-27T04:32:34;102262.59;;;2.32;100.00
49030;BME280;43337;52.070;4.508;2023-04-27T04:35:02;102262.66;;;2.35;100.00
49030;BME280;43337;52.070;4.508;2023-04-27T04:37:29;102272.19;;;2.36;100.00
49030;BME280;43337;52.070;4.508;2023-04-27T04:39:54;102265.25;;;2.35;100.00
49030;BME280;43337;52.070;4.508;2023-04-27T04:42:20;102268.66;;;2.32;100.00
49030;BME280;43337;52.070;4.508;2023-04-27T04:44:45;102266.13;;;2.35;100.00
49030;BME280;43337;52.070;4.508;2023-04-27T04:47:11;102256.50;;;2.30;100.00
49030;BME280;43337;52.070;4.508;2023-04-27T04:49:37;102266.94;;;2.34;100.00
49030;BME280;43337;52.070;4.508;2023-04-27T04:52:02;102266.06;;;2.34;100.00
49030;BME280;43337;52.070;4.508;2023-04-27T04:54:30;102267.91;;;2.41;100.00
49030;BME280;43337;52.070;4.508;2023-04-27T04:56:56;102262.66;;;2.35;100.00
49030;BME280;43337;52.070;4.508;2023-04-27T05:03:03;102259.25;;;2.40;100.00
49030;BME280;43337;52.070;4.508;2023-04-27T05:05:30;102264.56;;;2.50;100.00
49030;BME280;43337;52.070;4.508;2023-04-27T05:07:56;102274.19;;;2.55;100.00
49030;BME280;43337;52.070;4.508;2023-04-27T05:10:21;102262.88;;;2.53;100.00
49030;BME280;43337;52.070;4.508;2023-04-27T05:12:47;102273.38;;;2.58;100.00
49030;BME280;43337;52.070;4.508;2023-04-27T05:15:12;102282.09;;;2.63;100.00
49030;BME280;43337;52.070;4.508;2023-04-27T05:17:37;102281.22;;;2.64;100.00
49030;BME280;43337;52.070;4.508;2023-04-27T05:20:03;102279.44;;;2.60;100.00
49030;BME280;43337;52.070;4.508;2023-04-27T05:22:29;102281.22;;;2.64;100.00
49030;BME280;43337;52.070;4.508;2023-04-27T05:24:54;102277.72;;;2.60;100.00
49030;BME280;43337;52.070;4.508;2023-04-27T05:27:21;102285.66;;;2.71;100.00
49030;BME280;43337;52.070;4.508;2023-04-27T05:29:46;102283.16;;;2.77;100.00
49030;BME280;43337;52.070;4.508;2023-04-27T05:32:11;102277.97;;;2.79;100.00
49030;BME280;43337;52.070;4.508;2023-04-27T05:34:37;102287.59;;;2.87;100.00
49030;BME280;43337;52.070;4.508;2023-04-27T05:37:02;102290.28;;;2.93;100.00
49030;BME280;43337;52.070;4.508;2023-04-27T05:39:27;102283.34;;;2.94;100.00
49030;BME280;43337;52.070;4.508;2023-04-27T05:41:53;102271.22;;;2.94;100.00
49030;BME280;43337;52.070;4.508;2023-04-27T05:44:18;102279.19;;;3.08;100.00
49030;BME280;43337;52.070;4.508;2023-04-27T05:46:44;102291.38;;;3.12;100.00
49030;BME280;43337;52.070;4.508;2023-04-27T05:49:09;102285.31;;;3.15;100.00
49030;BME280;43337;52.070;4.508;2023-04-27T05:51:34;102281.91;;;3.16;100.00
49030;BME280;43337;52.070;4.508;2023-04-27T05:54:01;102292.47;;;3.31;100.00
49030;BME280;43337;52.070;4.508;2023-04-27T05:56:26;102298.66;;;3.42;100.00
49030;BME280;43337;52.070;4.508;2023-04-27T05:58:51;102284.00;;;3.52;100.00
49030;BME280;43337;52.070;4.508;2023-04-27T06:01:17;102289.31;;;3.63;100.00
49030;BME280;43337;52.070;4.508;2023-04-27T06:03:42;102285.13;;;3.77;100.00
49030;BME280;43337;52.070;4.508;2023-04-27T06:06:07;102271.28;;;3.86;100.00
49030;BME280;43337;52.070;4.508;2023-04-27T06:08:33;102298.44;;;4.14;100.00
49030;BME280;43337;52.070;4.508;2023-04-27T06:11:01;102292.47;;;4.29;100.00
49030;BME280;43337;52.070;4.508;2023-04-27T06:13:27;102302.16;;;4.48;100.00
49030;BME280;43337;52.070;4.508;2023-04-27T06:15:52;102297.88;;;4.59;100.00
49030;BME280;43337;52.070;4.508;2023-04-27T06:18:17;102296.25;;;4.77;100.00
49030;BME280;43337;52.070;4.508;2023-04-27T06:20:43;102276.22;;;4.76;100.00
49030;BME280;43337;52.070;4.508;2023-04-27T06:23:08;102294.56;;;4.99;100.00
49030;BME280;43337;52.070;4.508;2023-04-27T06:25:33;102290.31;;;5.11;100.00
49030;BME280;43337;52.070;4.508;2023-04-27T06:27:59;102290.34;;;5.27;100.00
49030;BME280;43337;52.070;4.508;2023-04-27T06:30:25;102259.88;;;5.24;100.00
49030;BME280;43337;52.070;4.508;2023-04-27T06:32:52;102284.28;;;5.49;100.00
49030;BME280;43337;52.070;4.508;2023-04-27T06:35:17;102279.09;;;5.63;100.00
49030;BME280;43337;52.070;4.508;2023-04-27T06:37:43;102281.72;;;5.78;100.00
49030;BME280;43337;52.070;4.508;2023-04-27T06:40:09;102259.94;;;5.82;100.00
49030;BME280;43337;52.070;4.508;2023-04-27T06:42:35;102284.38;;;6.01;100.00
49030;BME280;43337;52.070;4.508;2023-04-27T06:45:01;102282.63;;;6.09;100.00
49030;BME280;43337;52.070;4.508;2023-04-27T06:47:26;102284.34;;;6.14;100.00
49030;BME280;43337;52.070;4.508;2023-04-27T06:49:51;102283.47;;;6.15;100.00
49030;BME280;43337;52.070;4.508;2023-04-27T06:52:17;102280.84;;;6.25;100.00
49030;BME280;43337;52.070;4.508;2023-04-27T06:54:42;102285.22;;;6.32;100.00
49030;BME280;43337;52.070;4.508;2023-04-27T06:57:08;102295.63;;;6.48;100.00
49030;BME280;43337;52.070;4.508;2023-04-27T06:59:33;102293.88;;;6.59;100.00
49030;BME280;43337;52.070;4.508;2023-04-27T07:01:59;102286.00;;;6.73;100.00
49030;BME280;43337;52.070;4.508;2023-04-27T07:04:25;102289.44;;;6.85;100.00
49030;BME280;43337;52.070;4.508;2023-04-27T07:06:50;102285.88;;;7.02;100.00
49030;BME280;43337;52.070;4.508;2023-04-27T07:09:15;102283.22;;;7.09;100.00
49030;BME280;43337;52.070;4.508;2023-04-27T07:11:41;102282.28;;;7.23;100.00
49030;BME280;43337;52.070;4.508;2023-04-27T07:14:06;102276.13;;;7.31;100.00
49030;BME280;43337;52.070;4.508;2023-04-27T07:16:31;102261.25;;;7.37;100.00
49030;BME280;43337;52.070;4.508;2023-04-27T07:18:57;102274.28;;;7.47;100.00
49030;BME280;43337;52.070;4.508;2023-04-27T07:21:22;102272.44;;;7.60;100.00
49030;BME280;43337;52.070;4.508;2023-04-27T07:23:47;102268.00;;;7.70;100.00
49030;BME280;43337;52.070;4.508;2023-04-27T07:26:13;102256.59;;;7.72;100.00
49030;BME280;43337;52.070;4.508;2023-04-27T07:28:38;102281.00;;;7.85;100.00
49030;BME280;43337;52.070;4.508;2023-04-27T07:31:05;102256.56;;;7.81;100.00
49030;BME280;43337;52.070;4.508;2023-04-27T07:33:31;102280.88;;;7.99;100.00
49030;BME280;43337;52.070;4.508;2023-04-27T07:35:57;102279.09;;;7.99;100.00
49030;BME280;43337;52.070;4.508;2023-04-27T07:38:23;102285.97;;;8.17;100.00
49030;BME280;43337;52.070;4.508;2023-04-27T07:40:48;102265.84;;;8.19;100.00
49030;BME280;43337;52.070;4.508;2023-04-27T07:43:14;102271.81;;;8.32;100.00
49030;BME280;43337;52.070;4.508;2023-04-27T07:45:40;102279.63;;;8.43;100.00
49030;BME280;43337;52.070;4.508;2023-04-27T07:48:06;102275.19;;;8.48;100.00
49030;BME280;43337;52.070;4.508;2023-04-27T07:50:32;102278.56;;;8.59;100.00
49030;BME280;43337;52.070;4.508;2023-04-27T07:52:58;102260.22;;;8.56;100.00
49030;BME280;43337;52.070;4.508;2023-04-27T07:55:24;102270.47;;;8.79;100.00
49030;BME280;43337;52.070;4.508;2023-04-27T07:57:54;102272.16;;;8.85;100.00
49030;BME280;43337;52.070;4.508;2023-04-27T08:00:21;102281.75;;;8.89;100.00
49030;BME280;43337;52.070;4.508;2023-04-27T08:02:47;102269.47;;;8.88;100.00
49030;BME280;43337;52.070;4.508;2023-04-27T08:05:12;102270.19;;;8.99;100.00
49030;BME280;43337;52.070;4.508;2023-04-27T08:07:39;102265.75;;;9.07;100.00
49030;BME280;43337;52.070;4.508;2023-04-27T08:10:08;102253.44;;;9.09;100.00
49030;BME280;43337;52.070;4.508;2023-04-27T08:12:33;102271.59;;;9.27;100.00
49030;BME280;43337;52.070;4.508;2023-04-27T08:14:59;102258.31;;;9.38;100.00
49030;BME280;43337;52.070;4.508;2023-04-27T08:17:24;102255.59;;;9.43;100.00
49030;BME280;43337;52.070;4.508;2023-04-27T08:19:50;102257.91;;;9.63;100.00
49030;BME280;43337;52.070;4.508;2023-04-27T08:22:16;102255.94;;;9.75;100.00
49030;BME280;43337;52.070;4.508;2023-04-27T08:24:41;102253.16;;;9.86;100.00
49030;BME280;43337;52.070;4.508;2023-04-27T08:27:07;102268.81;;;9.94;100.00
49030;BME280;43337;52.070;4.508;2023-04-27T08:29:33;102267.91;;;9.96;98.94
49030;BME280;43337;52.070;4.508;2023-04-27T08:32:00;102266.13;;;9.97;100.00
49030;BME280;43337;52.070;4.508;2023-04-27T08:34:26;102255.59;;;9.97;100.00
49030;BME280;43337;52.070;4.508;2023-04-27T08:36:51;102268.72;;;9.98;97.42
49030;BME280;43337;52.070;4.508;2023-04-27T08:39:18;102261.69;;;10.00;100.00
49030;BME280;43337;52.070;4.508;2023-04-27T08:41:43;102258.16;;;10.01;99.22
49030;BME280;43337;52.070;4.508;2023-04-27T08:44:09;102258.91;;;10.08;98.07
49030;BME280;43337;52.070;4.508;2023-04-27T08:46:36;102254.47;;;10.12;97.98
49030;BME280;43337;52.070;4.508;2023-04-27T08:49:02;102262.19;;;10.21;97.04
49030;BME280;43337;52.070;4.508;2023-04-27T08:51:28;102242.03;;;10.20;95.19
49030;BME280;43337;52.070;4.508;2023-04-27T08:53:56;102232.31;;;10.26;95.65
49030;BME280;43337;52.070;4.508;2023-04-27T08:56:23;102260.03;;;10.44;94.79
49030;BME280;43337;52.070;4.508;2023-04-27T08:58:52;102240.84;;;10.39;94.55
49030;BME280;43337;52.070;4.508;2023-04-27T09:01:19;102250.09;;;10.59;91.81
49030;BME280;43337;52.070;4.508;2023-04-27T09:03:45;102235.06;;;10.64;86.68
49030;BME280;43337;52.070;4.508;2023-04-27T09:06:11;102239.41;;;10.66;90.21
49030;BME280;43337;52.070;4.508;2023-04-27T09:08:47;102249.81;;;10.74;86.43
49030;BME280;43337;52.070;4.508;2023-04-27T09:11:14;102243.34;;;10.89;88.49
49030;BME280;43337;52.070;4.508;2023-04-27T09:13:42;102236.19;;;10.95;87.48
49030;BME280;43337;52.070;4.508;2023-04-27T09:16:11;102249.91;;;11.11;87.54
49030;BME280;43337;52.070;4.508;2023-04-27T09:18:40;102240.16;;;11.13;76.61
49030;BME280;43337;52.070;4.508;2023-04-27T09:21:06;102228.88;;;11.07;77.44
49030;BME280;43337;52.070;4.508;2023-04-27T09:23:37;102242.75;;;11.16;85.35
49030;BME280;43337;52.070;4.508;2023-04-27T09:26:05;102236.50;;;11.20;83.40
49030;BME280;43337;52.070;4.508;2023-04-27T09:28:37;102241.50;;;11.33;83.14
49030;BME280;43337;52.070;4.508;2023-04-27T09:31:04;102233.38;;;11.42;84.88
49030;BME280;43337;52.070;4.508;2023-04-27T09:33:31;102233.09;;;11.53;82.43
49030;BME280;43337;52.070;4.508;2023-04-27T09:36:00;102252.16;;;11.65;79.19
49030;BME280;43337;52.070;4.508;2023-04-27T09:38:26;102242.34;;;11.70;81.79
49030;BME280;43337;52.070;4.508;2023-04-27T09:40:53;102247.31;;;11.83;80.71
49030;BME280;43337;52.070;4.508;2023-04-27T09:43:18;102249.72;;;11.93;80.15
49030;BME280;43337;52.070;4.508;2023-04-27T09:45:44;102247.94;;;11.95;77.50
49030;BME280;43337;52.070;4.508;2023-04-27T09:48:10;102247.00;;;11.96;77.85
49030;BME280;43337;52.070;4.508;2023-04-27T09:50:38;102245.84;;;12.07;75.29
49030;BME280;43337;52.070;4.508;2023-04-27T09:53:11;102254.56;;;12.10;77.03
49030;BME280;43337;52.070;4.508;2023-04-27T09:56:00;102244.91;;;12.09;65.65
49030;BME280;43337;52.070;4.508;2023-04-27T10:01:12;102243.00;;;12.16;76.89
49030;BME280;43337;52.070;4.508;2023-04-27T10:06:52;102239.16;;;12.28;64.44
49030;BME280;43337;52.070;4.508;2023-04-27T10:09:20;102227.50;;;12.35;74.89
49030;BME280;43337;52.070;4.508;2023-04-27T10:11:50;102242.03;;;12.51;73.57
49030;BME280;43337;52.070;4.508;2023-04-27T10:14:18;102239.94;;;12.62;72.55
49030;BME280;43337;52.070;4.508;2023-04-27T10:16:51;102238.78;;;12.73;67.11
49030;BME280;43337;52.070;4.508;2023-04-27T10:19:17;102235.91;;;12.80;70.76
49030;BME280;43337;52.070;4.508;2023-04-27T10:22:03;102226.16;;;12.82;65.65
49030;BME280;43337;52.070;4.508;2023-04-27T10:24:36;102231.13;;;12.93;61.86
49030;BME280;43337;52.070;4.508;2023-04-27T10:27:06;102237.97;;;13.00;68.26
49030;BME280;43337;52.070;4.508;2023-04-27T10:29:43;102229.19;;;12.98;54.39
49030;BME280;43337;52.070;4.508;2023-04-27T10:32:12;102237.03;;;13.01;64.03
49030;BME280;43337;52.070;4.508;2023-04-27T10:34:38;102227.16;;;13.08;62.59
49030;BME280;43337;52.070;4.508;2023-04-27T10:37:09;102227.06;;;13.11;61.68
49030;BME280;43337;52.070;4.508;2023-04-27T10:39:39;102235.44;;;13.25;63.78
49030;BME280;43337;52.070;4.508;2023-04-27T10:42:05;102215.06;;;13.29;63.47
49030;BME280;43337;52.070;4.508;2023-04-27T10:44:33;102226.25;;;13.37;62.60
49030;BME280;43337;52.070;4.508;2023-04-27T10:47:00;102209.59;;;13.35;58.69
49030;BME280;43337;52.070;4.508;2023-04-27T10:49:27;102213.16;;;13.34;57.67
49030;BME280;43337;52.070;4.508;2023-04-27T10:51:56;102211.94;;;13.44;59.98
49030;BME280;43337;52.070;4.508;2023-04-27T10:54:28;102199.47;;;13.48;59.00
49030;BME280;43337;52.070;4.508;2023-04-27T10:57:07;102197.50;;;13.54;56.05
49030;BME280;43337;52.070;4.508;2023-04-27T10:59:34;102206.47;;;13.49;55.58
49030;BME280;43337;52.070;4.508;2023-04-27T11:02:00;102215.19;;;13.52;55.06
49030;BME280;43337;52.070;4.508;2023-04-27T11:04:36;102196.66;;;13.52;56.41
49030;BME280;43337;52.070;4.508;2023-04-27T11:07:02;102188.53;;;13.58;55.33
49030;BME280;43337;52.070;4.508;2023-04-27T11:09:29;102197.00;;;13.68;55.41
49030;BME280;43337;52.070;4.508;2023-04-27T11:11:54;102183.47;;;13.77;56.13
49030;BME280;43337;52.070;4.508;2023-04-27T11:14:20;102190.22;;;13.86;54.33
49030;BME280;43337;52.070;4.508;2023-04-27T11:16:48;102192.22;;;13.79;50.61
49030;BME280;43337;52.070;4.508;2023-04-27T11:19:15;102201.66;;;13.88;53.08
49030;BME280;43337;52.070;4.508;2023-04-27T11:21:40;102194.66;;;13.85;51.95
49030;BME280;43337;52.070;4.508;2023-04-27T11:24:07;102163.84;;;13.83;52.01
49030;BME280;43337;52.070;4.508;2023-04-27T11:26:32;102170.56;;;13.93;51.83
49030;BME280;43337;52.070;4.508;2023-04-27T11:29:03;102178.66;;;14.13;48.46
49030;BME280;43337;52.070;4.508;2023-04-27T11:31:42;102159.91;;;14.20;50.03
49030;BME280;43337;52.070;4.508;2023-04-27T11:34:08;102175.44;;;14.30;52.92
49030;BME280;43337;52.070;4.508;2023-04-27T11:36:34;102175.00;;;14.41;52.28
49030;BME280;43337;52.070;4.508;2023-04-27T11:39:00;102184.72;;;14.42;49.93
49030;BME280;43337;52.070;4.508;2023-04-27T11:41:33;102178.69;;;14.37;47.02
49030;BME280;43337;52.070;4.508;2023-04-27T11:44:09;102161.16;;;14.34;50.83
49030;BME280;43337;52.070;4.508;2023-04-27T11:46:35;102144.72;;;14.25;50.04
49030;BME280;43337;52.070;4.508;2023-04-27T11:49:03;102173.28;;;14.40;49.12
49030;BME280;43337;52.070;4.508;2023-04-27T11:51:29;102160.28;;;14.34;48.62
49030;BME280;43337;52.070;4.508;2023-04-27T11:54:00;102170.13;;;14.30;48.79
49030;BME280;43337;52.070;4.508;2023-04-27T11:56:36;102170.41;;;14.23;49.38
49030;BME280;43337;52.070;4.508;2023-04-27T11:59:02;102160.94;;;14.15;48.59
49030;BME280;43337;52.070;4.508;2023-04-27T12:01:29;102156.44;;;14.17;48.90
49030;BME280;43337;52.070;4.508;2023-04-27T12:03:55;102180.66;;;14.32;49.11
49030;BME280;43337;52.070;4.508;2023-04-27T12:06:25;102160.00;;;14.41;47.67
49030;BME280;43337;52.070;4.508;2023-04-27T12:08:50;102157.78;;;14.54;49.40
49030;BME280;43337;52.070;4.508;2023-04-27T12:11:16;102150.63;;;14.56;48.17
49030;BME280;43337;52.070;4.508;2023-04-27T12:13:42;102156.56;;;14.63;47.67
49030;BME280;43337;52.070;4.508;2023-04-27T12:16:07;102146.88;;;14.62;48.50
49030;BME280;43337;52.070;4.508;2023-04-27T12:18:33;102152.69;;;14.72;47.18
49030;BME280;43337;52.070;4.508;2023-04-27T12:20:58;102165.31;;;14.65;46.38
49030;BME280;43337;52.070;4.508;2023-04-27T12:23:24;102159.16;;;14.64;46.50
49030;BME280;43337;52.070;4.508;2023-04-27T12:25:49;102149.06;;;14.74;46.98
49030;BME280;43337;52.070;4.508;2023-04-27T12:28:15;102148.97;;;14.76;45.69
49030;BME280;43337;52.070;4.508;2023-04-27T12:30:43;102137.47;;;14.77;47.13
49030;BME280;43337;52.070;4.508;2023-04-27T12:33:09;102135.38;;;14.85;46.50
49030;BME280;43337;52.070;4.508;2023-04-27T12:35:36;102131.50;;;14.94;47.22
49030;BME280;43337;52.070;4.508;2023-04-27T12:38:02;102139.25;;;14.98;47.33
49030;BME280;43337;52.070;4.508;2023-04-27T12:40:27;102136.50;;;15.01;47.08
49030;BME280;43337;52.070;4.508;2023-04-27T12:42:53;102140.75;;;15.05;45.55
49030;BME280;43337;52.070;4.508;2023-04-27T12:45:18;102131.63;;;15.12;45.88
49030;BME280;43337;52.070;4.508;2023-04-27T12:47:44;102126.81;;;15.22;46.32
49030;BME280;43337;52.070;4.508;2023-04-27T12:50:10;102123.16;;;15.25;45.97
49030;BME280;43337;52.070;4.508;2023-04-27T12:52:35;102128.66;;;15.20;46.39
49030;BME280;43337;52.070;4.508;2023-04-27T12:55:00;102128.44;;;15.25;46.35
49030;BME280;43337;52.070;4.508;2023-04-27T12:57:26;102128.53;;;15.23;45.94
49030;BME280;43337;52.070;4.508;2023-04-27T12:59:52;102132.25;;;15.19;45.51